createdAt,value
2018-07-26T00:01:38.851Z,100448.78
2018-07-26T00:04:06.915Z,100440.13
2018-07-26T00:06:34.955Z,100437.30
2018-07-26T00:09:03.077Z,100442.16
2018-07-26T00:11:31.099Z,100432.75
2018-07-26T00:13:59.155Z,100432.92
2018-07-26T00:16:27.619Z,100429.30
2018-07-26T00:18:55.865Z,100429.23
2018-07-26T00:21:24.108Z,100430.29
2018-07-26T00:23:52.472Z,100434.43
2018-07-26T00:26:20.546Z,100435.95
2018-07-26T00:28:48.847Z,100439.35
2018-07-26T00:31:18.008Z,100439.75
2018-07-26T00:33:46.573Z,100439.06
2018-07-26T00:36:15.619Z,100447.03
2018-07-26T00:38:43.776Z,100443.08
2018-07-26T00:41:12.190Z,100444.45
2018-07-26T00:43:40.656Z,100444.56
2018-07-26T00:46:08.698Z,100448.56
2018-07-26T00:48:36.785Z,100442.74
2018-07-26T00:51:04.815Z,100451.06
2018-07-26T00:53:32.874Z,100444.91
2018-07-26T00:56:00.915Z,100447.73
2018-07-26T00:58:29.011Z,100454.27
2018-07-26T01:00:57.154Z,100446.52
2018-07-26T01:03:25.182Z,100446.63
2018-07-26T01:05:53.223Z,100445.78
2018-07-26T01:08:21.268Z,100444.30
2018-07-26T01:10:49.279Z,100448.16
2018-07-26T01:13:17.324Z,100445.16
2018-07-26T01:15:45.407Z,100447.65
2018-07-26T01:18:13.443Z,100445.83
2018-07-26T01:20:41.467Z,100444.56
2018-07-26T01:23:09.901Z,100450.06
2018-07-26T01:25:37.875Z,100440.94
2018-07-26T01:28:05.940Z,100444.55
2018-07-26T01:30:33.969Z,100438.55
2018-07-26T01:33:02.062Z,100439.34
2018-07-26T01:35:30.089Z,100444.03
2018-07-26T01:37:58.130Z,100438.31
2018-07-26T01:40:26.167Z,100442.63
2018-07-26T01:43:05.540Z,100443.70
2018-07-26T01:45:33.849Z,100441.96
2018-07-26T01:48:01.888Z,100440.64
2018-07-26T01:50:29.928Z,100431.16
2018-07-26T01:52:57.989Z,100439.09
2018-07-26T01:55:26.124Z,100432.23
2018-07-26T01:57:54.155Z,100428.55
2018-07-26T02:00:22.195Z,100428.03
2018-07-26T02:02:50.268Z,100423.47
2018-07-26T02:05:18.283Z,100423.83
2018-07-26T02:07:46.311Z,100428.94
2018-07-26T02:10:14.331Z,100425.14
2018-07-26T02:12:42.363Z,100423.55
2018-07-26T02:15:10.414Z,100428.31
2018-07-26T02:17:38.454Z,100421.48
2018-07-26T02:20:06.495Z,100417.34
2018-07-26T02:22:34.554Z,100422.08
2018-07-26T02:25:02.603Z,100421.58
2018-07-26T02:27:30.647Z,100420.69
2018-07-26T02:29:58.887Z,100420.70
2018-07-26T02:32:27.112Z,100422.88
2018-07-26T02:34:55.306Z,100428.22
2018-07-26T02:37:23.620Z,100429.09
2018-07-26T02:39:51.912Z,100431.83
2018-07-26T02:42:20.323Z,100429.55
2018-07-26T02:44:48.461Z,100436.20
2018-07-26T02:47:16.681Z,100433.84
2018-07-26T02:49:44.860Z,100434.91
2018-07-26T02:52:13.040Z,100441.41
2018-07-26T02:54:41.138Z,100440.42
2018-07-26T02:57:09.166Z,100436.89
2018-07-26T02:59:37.205Z,100436.89
2018-07-26T03:02:05.239Z,100444.37
2018-07-26T03:04:33.296Z,100442.62
2018-07-26T03:07:01.373Z,100440.84
2018-07-26T03:09:29.417Z,100437.15
2018-07-26T03:11:57.498Z,100447.52
2018-07-26T03:14:25.567Z,100442.42
2018-07-26T03:16:53.604Z,100441.70
2018-07-26T03:19:21.650Z,100446.06
2018-07-26T03:21:49.684Z,100450.01
2018-07-26T03:24:18.076Z,100445.44
2018-07-26T03:26:46.120Z,100444.23
2018-07-26T03:29:14.139Z,100443.77
2018-07-26T03:31:42.191Z,100443.97
2018-07-26T03:34:10.371Z,100443.77
2018-07-26T03:36:38.399Z,100440.23
2018-07-26T03:39:07.426Z,100437.23
2018-07-26T03:41:35.472Z,100452.05
2018-07-26T03:44:03.549Z,100446.77
2018-07-26T03:46:31.608Z,100446.70
2018-07-26T03:48:59.655Z,100450.20
2018-07-26T03:51:27.869Z,100454.17
2018-07-26T03:53:56.279Z,100454.36
2018-07-26T03:56:24.880Z,100446.11
2018-07-26T03:58:53.039Z,100446.27
2018-07-26T04:01:21.115Z,100451.20
2018-07-26T04:03:49.166Z,100448.93
2018-07-26T04:06:17.191Z,100448.74
2018-07-26T04:08:45.231Z,100444.37
2018-07-26T04:11:13.255Z,100451.14
2018-07-26T04:13:41.573Z,100447.88
2018-07-26T04:16:09.614Z,100448.41
2018-07-26T04:18:37.640Z,100456.05
2018-07-26T04:21:05.703Z,100450.42
2018-07-26T04:23:33.728Z,100450.00
2018-07-26T04:26:01.830Z,100450.72
2018-07-26T04:28:29.911Z,100453.69
2018-07-26T04:30:58.219Z,100456.43
2018-07-26T04:33:26.536Z,100454.95
2018-07-26T04:35:54.867Z,100458.64
2018-07-26T04:38:23.006Z,100454.42
2018-07-26T04:40:51.282Z,100455.66
2018-07-26T04:43:19.589Z,100451.63
2018-07-26T04:45:48.046Z,100455.78
2018-07-26T04:48:16.241Z,100461.99
2018-07-26T04:50:44.379Z,100456.16
2018-07-26T04:53:12.479Z,100456.68
2018-07-26T04:55:40.587Z,100459.22
2018-07-26T04:58:08.627Z,100462.94
2018-07-26T05:00:36.696Z,100464.86
2018-07-26T05:03:04.779Z,100466.33
2018-07-26T05:05:32.822Z,100467.64
2018-07-26T05:08:00.906Z,100465.70
2018-07-26T05:10:28.915Z,100465.14
2018-07-26T05:12:56.935Z,100477.96
2018-07-26T05:15:25.012Z,100477.09
2018-07-26T05:17:53.035Z,100475.19
2018-07-26T05:20:21.074Z,100471.39
2018-07-26T05:22:49.552Z,100468.38
2018-07-26T05:25:18.211Z,100478.77
2018-07-26T05:27:46.778Z,100486.34
2018-07-26T05:30:15.371Z,100479.78
2018-07-26T05:32:43.544Z,100477.64
2018-07-26T05:35:11.593Z,100479.51
2018-07-26T05:37:39.652Z,100480.59
2018-07-26T05:40:07.713Z,100483.69
2018-07-26T05:42:35.767Z,100478.75
2018-07-26T05:45:04.011Z,100478.63
2018-07-26T05:47:32.194Z,100475.41
2018-07-26T05:50:01.308Z,100484.97
2018-07-26T05:52:34.193Z,100487.28
2018-07-26T05:55:02.235Z,100486.22
2018-07-26T05:57:30.291Z,100488.27
2018-07-26T05:59:58.708Z,100492.77
2018-07-26T06:02:26.687Z,100489.50
2018-07-26T06:04:54.764Z,100492.76
2018-07-26T06:07:22.831Z,100493.45
2018-07-26T06:09:50.862Z,100504.07
2018-07-26T06:12:18.970Z,100504.77
2018-07-26T06:14:47.007Z,100496.48
2018-07-26T06:17:15.332Z,100497.64
2018-07-26T06:19:43.558Z,100500.10
2018-07-26T06:22:11.693Z,100495.70
2018-07-26T06:24:39.749Z,100493.88
2018-07-26T06:27:07.875Z,100496.47
2018-07-26T06:29:36.079Z,100491.45
2018-07-26T06:32:04.117Z,100484.11
2018-07-26T06:34:32.163Z,100488.53
2018-07-26T06:37:00.215Z,100491.47
2018-07-26T06:39:28.275Z,100482.15
2018-07-26T06:41:56.454Z,100486.69
2018-07-26T06:44:24.499Z,100478.77
2018-07-26T06:46:52.567Z,100483.14
2018-07-26T06:49:20.622Z,100487.92
2018-07-26T06:51:48.679Z,100492.53
2018-07-26T06:54:16.719Z,100489.84
2018-07-26T06:56:44.791Z,100493.02
2018-07-26T06:59:12.848Z,100501.45
2018-07-26T07:01:40.896Z,100494.68
2018-07-26T07:04:09.231Z,100494.27
2018-07-26T07:06:37.272Z,100494.37
2018-07-26T07:09:08.272Z,100494.64
2018-07-26T07:11:36.411Z,100484.72
2018-07-26T07:14:04.674Z,100491.25
2018-07-26T07:16:32.739Z,100490.89
2018-07-26T07:19:00.856Z,100490.39
2018-07-26T07:21:28.983Z,100487.52
2018-07-26T07:23:57.113Z,100489.05
2018-07-26T07:26:25.399Z,100490.52
2018-07-26T07:28:53.451Z,100490.25
2018-07-26T07:31:21.776Z,100487.09
2018-07-26T07:33:50.151Z,100488.77
2018-07-26T07:36:18.198Z,100487.24
2018-07-26T07:38:46.243Z,100490.38
2018-07-26T07:41:14.291Z,100493.77
2018-07-26T07:43:42.355Z,100495.98
2018-07-26T07:46:10.387Z,100496.11
2018-07-26T07:48:38.419Z,100493.20
2018-07-26T07:51:06.476Z,100491.95
2018-07-26T07:53:34.534Z,100496.07
2018-07-26T07:56:02.918Z,100492.73
2018-07-26T07:58:30.954Z,100485.59
2018-07-26T08:00:59.024Z,100492.36
2018-07-26T08:03:27.112Z,100494.68
2018-07-26T08:05:55.155Z,100496.94
2018-07-26T08:08:23.251Z,100491.18
2018-07-26T08:10:51.481Z,100499.44
2018-07-26T08:13:20.100Z,100490.70
2018-07-26T08:15:48.731Z,100492.45
2018-07-26T08:18:17.275Z,100496.82
2018-07-26T08:20:46.065Z,100488.66
2018-07-26T08:23:15.027Z,100490.72
2018-07-26T08:25:43.300Z,100484.05
2018-07-26T08:28:11.412Z,100482.44
2018-07-26T08:30:39.487Z,100482.38
2018-07-26T08:33:07.891Z,100475.45
2018-07-26T08:35:36.179Z,100481.85
2018-07-26T08:38:04.523Z,100480.83
2018-07-26T08:40:32.611Z,100480.68
2018-07-26T08:43:00.690Z,100480.05
2018-07-26T08:45:28.831Z,100479.91
2018-07-26T08:47:57.236Z,100482.63
2018-07-26T08:50:26.409Z,100481.37
2018-07-26T08:52:54.655Z,100480.39
2018-07-26T08:55:23.016Z,100486.86
2018-07-26T08:57:51.535Z,100474.83
2018-07-26T09:00:21.096Z,100486.95
2018-07-26T09:02:50.029Z,100483.96
2018-07-26T09:05:18.548Z,100475.58
2018-07-26T09:07:46.783Z,100472.70
2018-07-26T09:10:15.760Z,100479.69
2018-07-26T09:12:44.218Z,100474.98
2018-07-26T09:15:12.266Z,100479.56
2018-07-26T09:17:40.303Z,100480.87
2018-07-26T09:20:08.592Z,100480.42
2018-07-26T09:22:36.906Z,100476.80
2018-07-26T09:25:04.957Z,100467.34
2018-07-26T09:27:33.001Z,100474.50
2018-07-26T09:30:03.507Z,100469.58
2018-07-26T09:32:31.595Z,100467.19
2018-07-26T09:34:59.741Z,100470.97
2018-07-26T09:37:28.328Z,100472.11
2018-07-26T09:39:56.359Z,100472.11
2018-07-26T09:42:24.470Z,100464.86
2018-07-26T09:44:54.026Z,100465.17
2018-07-26T09:47:22.764Z,100465.68
2018-07-26T09:49:50.986Z,100465.21
2018-07-26T09:52:19.092Z,100457.92
2018-07-26T09:54:47.827Z,100450.05
2018-07-26T09:57:16.099Z,100459.45
2018-07-26T09:59:44.407Z,100448.61
2018-07-26T10:02:12.869Z,100437.16
2018-07-26T10:04:41.096Z,100447.64
2018-07-26T10:07:09.376Z,100446.78
2018-07-26T10:09:37.774Z,100455.47
2018-07-26T10:12:05.851Z,100448.20
2018-07-26T10:14:34.189Z,100454.72
2018-07-26T10:17:03.845Z,100445.55
2018-07-26T10:19:31.911Z,100452.15
2018-07-26T10:22:00.506Z,100450.05
2018-07-26T10:24:29.163Z,100448.00
2018-07-26T10:26:57.469Z,100452.97
2018-07-26T10:29:25.917Z,100450.09
2018-07-26T10:31:54.188Z,100445.88
2018-07-26T10:34:22.635Z,100442.25
2018-07-26T10:36:50.784Z,100437.53
2018-07-26T10:39:19.215Z,100444.19
2018-07-26T10:41:47.442Z,100441.58
2018-07-26T10:44:15.837Z,100431.69
2018-07-26T10:46:44.546Z,100432.98
2018-07-26T10:49:13.106Z,100431.44
2018-07-26T10:51:44.368Z,100439.75
2018-07-26T10:54:13.395Z,100437.28
2018-07-26T10:56:41.447Z,100429.17
2018-07-26T10:59:09.502Z,100429.56
2018-07-26T11:01:37.565Z,100420.08
2018-07-26T11:04:05.597Z,100418.00
2018-07-26T11:06:34.449Z,100417.94
2018-07-26T11:09:02.536Z,100424.38
2018-07-26T11:11:30.683Z,100418.52
2018-07-26T11:13:59.699Z,100418.52
2018-07-26T11:16:27.758Z,100423.34
2018-07-26T11:18:56.316Z,100424.63
2018-07-26T11:21:24.654Z,100419.69
2018-07-26T11:23:53.502Z,100423.78
2018-07-26T11:26:22.054Z,100427.42
2018-07-26T11:28:50.515Z,100423.39
2018-07-26T11:31:18.611Z,100418.70
2018-07-26T11:33:46.709Z,100411.94
2018-07-26T11:36:14.799Z,100408.19
2018-07-26T11:38:43.029Z,100408.88
2018-07-26T11:41:11.103Z,100403.55
2018-07-26T11:43:40.477Z,100403.94
2018-07-26T11:46:08.497Z,100412.92
2018-07-26T11:48:36.607Z,100407.59
2018-07-26T11:51:04.787Z,100400.04
2018-07-26T11:53:32.895Z,100404.08
2018-07-26T11:56:01.108Z,100415.15
2018-07-26T11:58:29.258Z,100400.82
2018-07-26T12:00:58.376Z,100385.97
2018-07-26T12:03:26.616Z,100387.29
2018-07-26T12:05:55.206Z,100380.48
2018-07-26T12:08:23.431Z,100388.84
2018-07-26T12:10:51.984Z,100376.73
2018-07-26T12:13:20.040Z,100384.42
2018-07-26T12:15:48.184Z,100378.84
2018-07-26T12:18:16.658Z,100380.52
2018-07-26T12:20:44.906Z,100380.77
2018-07-26T12:23:13.022Z,100369.96
2018-07-26T12:25:41.551Z,100377.80
2018-07-26T12:28:09.733Z,100380.26
2018-07-26T12:30:37.794Z,100371.52
2018-07-26T12:33:07.329Z,100365.29
2018-07-26T12:35:35.384Z,100359.67
2018-07-26T12:38:04.396Z,100367.11
2018-07-26T12:40:32.598Z,100364.77
2018-07-26T12:43:01.043Z,100367.64
2018-07-26T12:45:29.531Z,100357.59
2018-07-26T12:47:58.756Z,100360.05
2018-07-26T12:50:27.060Z,100372.69
2018-07-26T12:52:55.515Z,100362.02
2018-07-26T12:55:23.569Z,100352.25
2018-07-26T12:57:51.631Z,100352.27
2018-07-26T13:00:19.661Z,100355.27
2018-07-26T13:02:47.753Z,100357.07
2018-07-26T13:05:15.874Z,100346.66
2018-07-26T13:07:43.948Z,100347.97
2018-07-26T13:10:12.232Z,100352.66
2018-07-26T13:12:40.275Z,100348.87
2018-07-26T13:15:08.412Z,100348.08
2018-07-26T13:17:36.444Z,100338.83
2018-07-26T13:20:06.064Z,100337.79
2018-07-26T13:22:34.205Z,100355.27
2018-07-26T13:25:02.236Z,100351.06
2018-07-26T13:27:30.309Z,100342.48
2018-07-26T13:29:58.548Z,100344.55
2018-07-26T13:32:26.680Z,100338.31
2018-07-26T13:34:54.872Z,100336.25
2018-07-26T13:37:23.209Z,100345.87
2018-07-26T13:39:51.936Z,100344.70
2018-07-26T13:42:20.190Z,100347.31
2018-07-26T13:44:48.678Z,100342.48
2018-07-26T13:47:17.570Z,100336.11
2018-07-26T13:49:46.057Z,100329.59
2018-07-26T13:52:14.555Z,100322.97
2018-07-26T13:54:42.887Z,100316.97
2018-07-26T13:57:11.936Z,100325.17
2018-07-26T13:59:40.365Z,100316.95
2018-07-26T14:02:08.416Z,100316.69
2018-07-26T14:04:36.528Z,100323.09
2018-07-26T14:07:04.906Z,100309.66
2018-07-26T14:09:32.936Z,100314.09
2018-07-26T14:12:01.329Z,100313.56
2018-07-26T14:14:29.359Z,100321.67
2018-07-26T14:16:57.394Z,100308.23
2018-07-26T14:19:25.779Z,100309.29
2018-07-26T14:21:53.831Z,100304.85
2018-07-26T14:24:22.473Z,100310.97
2018-07-26T14:26:51.762Z,100307.82
2018-07-26T14:29:20.989Z,100301.97
2018-07-26T14:31:49.881Z,100309.41
2018-07-26T14:34:18.671Z,100303.67
2018-07-26T14:36:47.299Z,100298.20
2018-07-26T14:39:15.393Z,100300.81
2018-07-26T14:41:43.551Z,100293.75
2018-07-26T14:44:11.907Z,100293.89
2018-07-26T14:46:40.236Z,100298.61
2018-07-26T14:49:08.303Z,100285.95
2018-07-26T14:51:37.124Z,100289.06
2018-07-26T14:54:05.179Z,100297.80
2018-07-26T14:56:33.237Z,100288.83
2018-07-26T14:59:01.272Z,100288.17
2018-07-26T15:01:29.465Z,100284.94
2018-07-26T15:03:58.531Z,100278.95
2018-07-26T15:06:26.749Z,100296.12
2018-07-26T15:08:54.816Z,100283.91
2018-07-26T15:11:22.906Z,100276.36
2018-07-26T15:13:50.935Z,100287.55
2018-07-26T15:16:19.463Z,100283.49
2018-07-26T15:18:48.037Z,100288.98
2018-07-26T15:21:16.456Z,100281.94
2018-07-26T15:23:44.859Z,100284.95
2018-07-26T15:26:12.924Z,100272.84
2018-07-26T15:28:42.096Z,100289.23
2018-07-26T15:31:10.740Z,100287.91
2018-07-26T15:33:38.493Z,100284.55
2018-07-26T15:36:06.527Z,100285.44
2018-07-26T15:38:34.592Z,100289.61
2018-07-26T15:41:02.709Z,100277.39
2018-07-26T15:43:30.754Z,100270.37
2018-07-26T15:45:58.812Z,100287.53
2018-07-26T15:48:26.847Z,100276.45
2018-07-26T15:50:55.136Z,100283.75
2018-07-26T15:53:23.171Z,100282.84
2018-07-26T15:55:51.211Z,100270.84
2018-07-26T15:58:19.744Z,100186.66
2018-07-26T16:00:47.941Z,100267.47
2018-07-26T16:03:16.311Z,100273.70
2018-07-26T16:05:44.484Z,100276.95
2018-07-26T16:08:12.667Z,100270.20
2018-07-26T16:10:40.929Z,100270.86
2018-07-26T16:13:09.052Z,100275.24
2018-07-26T16:15:37.113Z,100278.78
2018-07-26T16:18:06.036Z,100268.23
2018-07-26T16:20:34.043Z,100269.28
2018-07-26T16:23:02.845Z,100267.33
2018-07-26T16:25:30.931Z,100273.59
2018-07-26T16:27:59.236Z,100277.23
2018-07-26T16:30:27.851Z,100267.47
2018-07-26T16:32:56.118Z,100271.23
2018-07-26T16:35:24.506Z,100261.98
2018-07-26T16:37:53.111Z,100264.09
2018-07-26T16:40:21.789Z,100273.23
2018-07-26T16:42:53.388Z,100268.38
2018-07-26T16:45:21.649Z,100272.54
2018-07-26T16:47:50.063Z,100268.27
2018-07-26T16:50:18.890Z,100261.64
2018-07-26T16:52:47.471Z,100264.02
2018-07-26T16:55:17.368Z,100259.56
2018-07-26T16:57:46.021Z,100265.53
2018-07-26T17:00:14.258Z,100260.34
2018-07-26T17:02:42.567Z,100268.17
2018-07-26T17:05:11.360Z,100259.16
2018-07-26T17:07:39.704Z,100262.02
2018-07-26T17:10:08.619Z,100266.31
2018-07-26T17:12:36.732Z,100261.48
2018-07-26T17:15:05.791Z,100265.92
2018-07-26T17:17:33.923Z,100262.17
2018-07-26T17:20:01.987Z,100260.84
2018-07-26T17:22:30.118Z,100268.40
2018-07-26T17:24:58.648Z,100269.69
2018-07-26T17:27:27.121Z,100264.36
2018-07-26T17:29:55.404Z,100264.50
2018-07-26T17:32:23.508Z,100265.15
2018-07-26T17:34:51.562Z,100268.02
2018-07-26T17:37:19.899Z,100267.23
2018-07-26T17:39:47.939Z,100268.52
2018-07-26T17:42:16.664Z,100264.22
2018-07-26T17:44:44.795Z,100270.34
2018-07-26T17:47:13.315Z,100276.84
2018-07-26T17:49:41.347Z,100278.67
2018-07-26T17:52:09.459Z,100269.80
2018-07-26T17:54:37.496Z,100273.98
2018-07-26T17:57:06.194Z,100269.02
2018-07-26T17:59:34.380Z,100270.28
2018-07-26T18:02:02.968Z,100274.44
2018-07-26T18:04:31.160Z,100271.67
2018-07-26T18:06:59.174Z,100272.71
2018-07-26T18:09:27.229Z,100277.79
2018-07-26T18:11:55.391Z,100270.23
2018-07-26T18:14:23.403Z,100274.13
2018-07-26T18:16:51.479Z,100275.16
2018-07-26T18:19:19.561Z,100269.67
2018-07-26T18:21:47.720Z,100279.33
2018-07-26T18:24:15.775Z,100277.48
2018-07-26T18:26:43.798Z,100277.72
2018-07-26T18:29:11.941Z,100283.83
2018-07-26T18:31:39.977Z,100284.82
2018-07-26T18:34:08.087Z,100286.88
2018-07-26T18:36:36.146Z,100292.28
2018-07-26T18:39:06.506Z,100295.91
2018-07-26T18:41:34.554Z,100293.52
2018-07-26T18:44:02.722Z,100292.84
2018-07-26T18:46:30.691Z,100298.39
2018-07-26T18:48:58.723Z,100297.95
2018-07-26T18:51:26.751Z,100295.97
2018-07-26T18:53:54.808Z,100304.78
2018-07-26T18:56:22.997Z,100312.03
2018-07-26T18:58:51.298Z,100309.81
2018-07-26T19:01:19.375Z,100311.73
2018-07-26T19:03:47.427Z,100314.55
2018-07-26T19:06:15.483Z,100313.31
2018-07-26T19:08:43.538Z,100314.55
2018-07-26T19:11:11.575Z,100321.11
2018-07-26T19:13:39.687Z,100325.72
2018-07-26T19:16:08.375Z,100327.07
2018-07-26T19:18:36.428Z,100332.61
2018-07-26T19:21:04.483Z,100329.13
2018-07-26T19:23:32.559Z,100332.05
2018-07-26T19:26:00.610Z,100335.58
2018-07-26T19:28:28.640Z,100338.41
2018-07-26T19:30:56.898Z,100340.86
2018-07-26T19:33:24.965Z,100349.20
2018-07-26T19:35:52.999Z,100348.55
2018-07-26T19:38:21.263Z,100351.06
2018-07-26T19:40:49.344Z,100352.47
2018-07-26T19:43:17.942Z,100353.56
2018-07-26T19:45:45.995Z,100355.42
2018-07-26T19:48:14.028Z,100355.27
2018-07-26T19:50:42.095Z,100358.52
2018-07-26T19:53:10.139Z,100363.85
2018-07-26T19:55:38.199Z,100366.30
2018-07-26T19:58:06.708Z,100360.34
2018-07-26T20:00:34.955Z,100363.73
2018-07-26T20:03:03.006Z,100357.52
2018-07-26T20:05:31.036Z,100364.06
2018-07-26T20:07:59.717Z,100366.31
2018-07-26T20:10:27.763Z,100371.12
2018-07-26T20:12:55.827Z,100370.88
2018-07-26T20:15:23.889Z,100372.70
2018-07-26T20:17:51.913Z,100368.34
2018-07-26T20:20:19.989Z,100367.89
2018-07-26T20:22:48.061Z,100368.17
2018-07-26T20:25:16.628Z,100374.53
2018-07-26T20:27:45.699Z,100380.85
2018-07-26T20:30:13.956Z,100375.80
2018-07-26T20:32:42.044Z,100369.66
2018-07-26T20:35:10.173Z,100375.25
2018-07-26T20:37:38.254Z,100376.06
2018-07-26T20:40:08.281Z,100381.64
2018-07-26T20:42:36.547Z,100386.60
2018-07-26T20:45:06.195Z,100387.13
2018-07-26T20:47:35.551Z,100389.86
2018-07-26T20:50:03.621Z,100388.16
2018-07-26T20:52:31.692Z,100390.56
2018-07-26T20:54:59.763Z,100392.95
2018-07-26T20:57:29.720Z,100389.50
2018-07-26T20:59:59.203Z,100386.17
2018-07-26T21:02:31.758Z,100390.14
2018-07-26T21:05:00.766Z,100390.20
2018-07-26T21:07:31.348Z,100404.02
2018-07-26T21:10:01.010Z,100401.59
2018-07-26T21:12:29.735Z,100399.77
2018-07-26T21:14:58.668Z,100400.73
2018-07-26T21:17:27.413Z,100403.45
2018-07-26T21:19:56.082Z,100395.75
2018-07-26T21:22:25.252Z,100397.67
2018-07-26T21:24:54.926Z,100392.02
2018-07-26T21:27:23.993Z,100395.84
2018-07-26T21:29:53.374Z,100399.00
2018-07-26T21:32:23.326Z,100398.53
2018-07-26T21:34:52.945Z,100409.56
2018-07-26T21:37:22.972Z,100405.79
2018-07-26T21:39:51.094Z,100404.85
2018-07-26T21:43:43.644Z,100409.92
2018-07-26T21:46:11.723Z,100404.41
2018-07-26T21:48:39.779Z,100404.88
2018-07-26T21:51:08.228Z,100407.70
2018-07-26T21:53:36.380Z,100412.09
2018-07-26T21:56:04.475Z,100419.33
2018-07-26T21:58:32.523Z,100410.98
2018-07-26T22:01:00.552Z,100413.96
2018-07-26T22:03:29.828Z,100414.42
2018-07-26T22:05:58.284Z,100404.84
2018-07-26T22:08:26.405Z,100411.27
2018-07-26T22:10:54.596Z,100415.98
2018-07-26T22:13:22.702Z,100416.61
2018-07-26T22:15:51.839Z,100417.38
2018-07-26T22:18:20.184Z,100411.85
2018-07-26T22:20:48.350Z,100418.31
2018-07-26T22:23:16.933Z,100419.67
2018-07-26T22:25:48.946Z,100426.13
2018-07-26T22:28:17.952Z,100423.13
2018-07-26T22:30:47.480Z,100422.30
2018-07-26T22:33:15.936Z,100426.23
2018-07-26T22:35:44.786Z,100430.27
2018-07-26T22:38:13.412Z,100433.53
2018-07-26T22:40:41.543Z,100432.83
2018-07-26T22:43:09.843Z,100432.64
2018-07-26T22:45:38.331Z,100436.80
2018-07-26T22:48:06.493Z,100431.38
2018-07-26T22:50:34.604Z,100436.35
2018-07-26T22:53:02.805Z,100434.88
2018-07-26T22:55:30.938Z,100436.39
2018-07-26T22:57:59.204Z,100435.23
2018-07-26T23:00:27.333Z,100430.56
2018-07-26T23:02:55.685Z,100436.28
2018-07-26T23:05:23.992Z,100434.45
2018-07-26T23:07:52.629Z,100437.31
2018-07-26T23:10:21.314Z,100437.41
2018-07-26T23:12:50.293Z,100442.52
2018-07-26T23:15:18.991Z,100443.72
2018-07-26T23:17:47.878Z,100446.94
2018-07-26T23:20:16.048Z,100443.52
2018-07-26T23:22:44.578Z,100446.23
2018-07-26T23:25:13.165Z,100442.07
2018-07-26T23:27:41.294Z,100444.78
2018-07-26T23:30:12.311Z,100449.52
2018-07-26T23:32:40.651Z,100451.88
2018-07-26T23:35:09.402Z,100447.09
2018-07-26T23:37:37.945Z,100446.06
2018-07-26T23:40:07.641Z,100446.94
2018-07-26T23:42:35.798Z,100448.45
2018-07-26T23:45:04.324Z,100444.16
2018-07-26T23:47:32.551Z,100445.83
2018-07-26T23:50:00.744Z,100441.73
2018-07-26T23:52:29.239Z,100450.11
2018-07-26T23:54:57.900Z,100449.87
2018-07-26T23:57:25.954Z,100446.35
